Terminal Aerodrome Forecast
Issued by NWS

Home | Current Version | Previous Version | Text Only | Print | Product List | Glossary Off
Versions: 1 2 3 4 5 6 7 8 9 10 11 12 13 14 15 16 17

000
FTUS43 KMPX 220500
TAFAXN
TAF
KAXN 220536Z 2206/2306 15014G22KT P6SM SCT250
     FM221200 16018G24KT P6SM VCSH SCT015 BKN050
     FM221600 17019G26KT P6SM SCT025 BKN040
     FM222200 16013KT P6SM SCT020 OVC035
      TEMPO 2222/2302 5SM SHRA BKN020
     FM230200 17010KT P6SM SCT015 OVC035=

USA.gov is the U.S. government's official web portal to all federal, state and local government web resources and services.